Time;durP1;ratioP1;P1;durP2;ratioP2;P2;SDS_P1;SDS_P2;PMS_P1;PMS_P2;Temp;Humidity;BMP_temperature;BMP_pressure;BME280_temperature;BME280_humidity;BME280_pressure;Samples;Min_cycle;Max_cycle;Signal;HPM_P1;HPM_P2
2023/07/26 00:01:27;;;;;;;5.07;2.20;;;;;;;;;;4974425;28;20050;-69
2023/07/26 00:03:58;;;;;;;5.97;2.55;;;;;;;;;;4973636;28;20050;-70
2023/07/26 00:06:23;;;;;;;9.35;2.55;;;;;;;;;;4974271;28;20038;-70
2023/07/26 00:08:48;;;;;;;13.52;3.03;;;;;;;;;;4973949;28;20071;-70
2023/07/26 00:11:14;;;;;;;14.73;3.42;;;;;;;;;;4974343;28;20085;-70
2023/07/26 00:13:39;;;;;;;8.77;2.97;;;;;;;;;;4974362;28;20050;-69
2023/07/26 00:16:04;;;;;;;10.40;2.58;;;;;;;;;;4973770;28;20050;-69
2023/07/26 00:18:30;;;;;;;10.38;2.50;;;;;;;;;;4974161;28;20039;-69
2023/07/26 00:20:55;;;;;;;6.93;2.53;;;;;;;;;;4973927;28;20118;-69
2023/07/26 00:23:20;;;;;;;12.50;2.67;;;;;;;;;;4974024;28;20042;-69
2023/07/26 00:25:46;;;;;;;7.60;2.58;;;;;;;;;;4968194;28;20038;-69
2023/07/26 00:28:11;;;;;;;9.48;2.42;;;;;;;;;;4973504;28;20039;-69
2023/07/26 00:30:37;;;;;;;8.38;2.53;;;;;;;;;;4973115;28;20170;-69
2023/07/26 00:33:02;;;;;;;9.50;2.28;;;;;;;;;;4974213;28;20489;-69
2023/07/26 00:35:32;;;;;;;7.95;2.50;;;;;;;;;;4973651;28;20412;-69
2023/07/26 00:37:57;;;;;;;10.98;2.70;;;;;;;;;;4972500;28;20039;-69
2023/07/26 00:40:22;;;;;;;8.55;2.42;;;;;;;;;;4973456;28;20045;-69
2023/07/26 00:42:48;;;;;;;7.63;2.70;;;;;;;;;;4974036;28;20055;-69
2023/07/26 00:45:13;;;;;;;9.25;2.85;;;;;;;;;;4977104;28;20046;-69
2023/07/26 00:47:38;;;;;;;11.68;2.92;;;;;;;;;;4977633;28;20477;-69
2023/07/26 00:50:04;;;;;;;9.70;2.53;;;;;;;;;;4976357;28;20062;-69
2023/07/26 00:52:29;;;;;;;11.13;2.70;;;;;;;;;;4977962;28;20042;-69
2023/07/26 00:54:55;;;;;;;9.25;2.80;;;;;;;;;;4975918;28;20037;-69
2023/07/26 00:57:21;;;;;;;4.93;2.28;;;;;;;;;;4976423;28;20045;-69
2023/07/26 00:59:46;;;;;;;10.63;2.63;;;;;;;;;;4977494;28;20045;-69
2023/07/26 01:02:11;;;;;;;8.45;2.15;;;;;;;;;;4977000;28;20034;-69
2023/07/26 01:04:37;;;;;;;10.10;2.65;;;;;;;;;;4977062;28;20051;-69
2023/07/26 01:07:17;;;;;;;14.32;2.35;;;;;;;;;;4976072;28;20046;-69
2023/07/26 01:10:06;;;;;;;12.57;2.85;;;;;;;;;;4976202;28;20050;-69
2023/07/26 01:12:37;;;;;;;11.63;2.92;;;;;;;;;;4975911;28;20491;-69
2023/07/26 01:15:07;;;;;;;10.07;2.03;;;;;;;;;;4975931;28;20042;-69
2023/07/26 01:17:32;;;;;;;8.48;2.20;;;;;;;;;;4976234;28;20050;-69
2023/07/26 01:19:58;;;;;;;10.63;3.03;;;;;;;;;;4976753;28;20483;-69
2023/07/26 01:22:23;;;;;;;10.77;2.38;;;;;;;;;;4977302;28;20090;-69
2023/07/26 01:24:48;;;;;;;6.47;2.28;;;;;;;;;;4976919;28;20505;-69
2023/07/26 01:27:14;;;;;;;18.13;3.25;;;;;;;;;;4977019;28;20035;-69
2023/07/26 01:29:39;;;;;;;12.05;2.50;;;;;;;;;;4976707;28;20043;-69
2023/07/26 01:32:06;;;;;;;8.38;2.33;;;;;;;;;;4976488;28;20108;-69
2023/07/26 01:34:32;;;;;;;9.80;3.00;;;;;;;;;;4976709;28;20046;-69
2023/07/26 01:36:58;;;;;;;7.43;2.60;;;;;;;;;;4975707;28;20049;-69
2023/07/26 01:39:24;;;;;;;10.48;2.53;;;;;;;;;;4976763;28;20356;-69
2023/07/26 01:41:50;;;;;;;7.32;2.10;;;;;;;;;;4975195;28;20042;-69
2023/07/26 01:44:15;;;;;;;7.07;2.30;;;;;;;;;;4976777;28;20071;-69
2023/07/26 01:46:40;;;;;;;6.03;2.38;;;;;;;;;;5008115;28;20050;-69
2023/07/26 01:49:06;;;;;;;8.35;2.67;;;;;;;;;;4976382;28;20050;-69
2023/07/26 01:51:31;;;;;;;10.68;2.65;;;;;;;;;;4976915;28;20057;-69
2023/07/26 01:53:56;;;;;;;11.32;2.53;;;;;;;;;;4976337;28;20057;-69
2023/07/26 01:56:22;;;;;;;11.70;2.90;;;;;;;;;;4975957;28;20121;-69
2023/07/26 01:58:47;;;;;;;9.52;2.67;;;;;;;;;;4976347;28;20047;-69
2023/07/26 02:01:12;;;;;;;8.52;2.40;;;;;;;;;;4975840;28;20054;-69
2023/07/26 02:03:38;;;;;;;12.65;2.28;;;;;;;;;;4976187;28;20039;-69
2023/07/26 02:06:03;;;;;;;16.00;2.70;;;;;;;;;;4976172;28;20376;-69
2023/07/26 02:08:28;;;;;;;8.35;2.65;;;;;;;;;;4976496;28;20035;-69
2023/07/26 02:10:54;;;;;;;7.60;2.50;;;;;;;;;;4974956;28;20038;-69
2023/07/26 02:13:19;;;;;;;10.02;2.83;;;;;;;;;;4976293;28;20042;-68
2023/07/26 02:15:45;;;;;;;8.88;2.33;;;;;;;;;;4976002;28;20042;-69
2023/07/26 02:18:11;;;;;;;9.98;2.92;;;;;;;;;;4976016;28;20049;-69
2023/07/26 02:20:36;;;;;;;11.55;2.75;;;;;;;;;;4975817;28;20118;-69
2023/07/26 02:23:01;;;;;;;8.27;2.28;;;;;;;;;;4974619;28;20050;-69
2023/07/26 02:25:27;;;;;;;12.13;2.58;;;;;;;;;;4975683;28;20038;-69
2023/07/26 02:27:52;;;;;;;11.23;2.47;;;;;;;;;;4976120;28;20464;-69
2023/07/26 02:30:17;;;;;;;10.55;2.70;;;;;;;;;;4975952;28;20046;-69
2023/07/26 02:32:43;;;;;;;8.23;2.50;;;;;;;;;;4975798;28;20031;-69
2023/07/26 02:35:08;;;;;;;11.38;3.25;;;;;;;;;;4975411;28;20038;-69
2023/07/26 02:37:34;;;;;;;14.95;2.97;;;;;;;;;;4975782;28;20038;-69
2023/07/26 02:39:59;;;;;;;12.48;2.78;;;;;;;;;;4974209;28;20391;-69
2023/07/26 02:42:26;;;;;;;7.65;2.25;;;;;;;;;;4975914;28;20042;-69
2023/07/26 02:44:53;;;;;;;10.18;2.65;;;;;;;;;;4975011;28;20043;-69
2023/07/26 02:47:19;;;;;;;8.20;2.78;;;;;;;;;;4974756;28;20383;-69
2023/07/26 02:49:44;;;;;;;7.25;2.53;;;;;;;;;;4975053;28;20043;-69
2023/07/26 02:52:09;;;;;;;10.80;3.03;;;;;;;;;;4975723;28;20050;-69
2023/07/26 02:54:35;;;;;;;10.60;2.90;;;;;;;;;;4975269;28;20034;-69
2023/07/26 02:57:00;;;;;;;8.90;2.67;;;;;;;;;;4975590;28;20058;-69
2023/07/26 02:59:25;;;;;;;8.45;2.83;;;;;;;;;;4975300;28;20442;-69
2023/07/26 03:01:50;;;;;;;9.00;2.83;;;;;;;;;;4973634;28;20046;-69
2023/07/26 03:04:16;;;;;;;17.48;3.00;;;;;;;;;;4975074;28;20042;-69
2023/07/26 03:06:41;;;;;;;15.18;2.47;;;;;;;;;;4975066;28;20061;-69
2023/07/26 03:09:07;;;;;;;12.95;3.22;;;;;;;;;;4973733;28;20046;-69
2023/07/26 03:11:32;;;;;;;8.95;2.50;;;;;;;;;;4975268;28;20047;-69
2023/07/26 03:13:57;;;;;;;11.20;2.65;;;;;;;;;;4974301;28;20038;-69
2023/07/26 03:16:23;;;;;;;15.52;3.67;;;;;;;;;;4975136;28;20042;-69
2023/07/26 03:18:48;;;;;;;11.75;2.65;;;;;;;;;;4974721;28;20067;-70
2023/07/26 03:21:13;;;;;;;19.15;3.55;;;;;;;;;;4974618;28;20043;-69
2023/07/26 03:23:39;;;;;;;9.38;2.75;;;;;;;;;;4975065;28;20467;-69
2023/07/26 03:26:04;;;;;;;11.05;2.88;;;;;;;;;;4974436;28;20105;-68
2023/07/26 03:28:30;;;;;;;8.18;2.40;;;;;;;;;;4973384;28;20049;-69
2023/07/26 03:30:55;;;;;;;7.75;2.33;;;;;;;;;;4973216;28;20066;-69
2023/07/26 03:33:21;;;;;;;14.15;2.58;;;;;;;;;;4975059;28;20438;-69
2023/07/26 03:35:46;;;;;;;11.00;2.72;;;;;;;;;;4974739;28;20372;-69
2023/07/26 03:38:12;;;;;;;8.38;2.45;;;;;;;;;;4974643;28;20422;-69
2023/07/26 03:40:39;;;;;;;9.55;2.17;;;;;;;;;;4974627;28;20045;-69
2023/07/26 03:43:04;;;;;;;11.95;2.83;;;;;;;;;;4974608;28;20045;-69
2023/07/26 03:45:30;;;;;;;8.80;2.38;;;;;;;;;;4974432;28;20401;-68
2023/07/26 03:47:55;;;;;;;19.63;2.50;;;;;;;;;;4973084;28;20038;-69
2023/07/26 03:50:21;;;;;;;12.43;2.38;;;;;;;;;;4974424;28;20042;-69
2023/07/26 03:52:47;;;;;;;11.18;2.38;;;;;;;;;;4970486;28;20035;-69
2023/07/26 03:55:12;;;;;;;9.68;2.55;;;;;;;;;;4974501;28;20049;-68
2023/07/26 03:57:37;;;;;;;6.30;2.13;;;;;;;;;;4974830;28;20049;-69
2023/07/26 04:00:04;;;;;;;7.70;2.50;;;;;;;;;;4972833;28;20105;-69
2023/07/26 04:02:29;;;;;;;18.02;2.20;;;;;;;;;;4974111;28;20110;-69
2023/07/26 04:04:55;;;;;;;11.15;2.60;;;;;;;;;;4974061;28;20047;-69
2023/07/26 04:07:20;;;;;;;9.30;2.42;;;;;;;;;;4974552;28;20026;-68
2023/07/26 04:09:46;;;;;;;11.35;2.63;;;;;;;;;;4974241;28;20043;-69
2023/07/26 04:12:11;;;;;;;15.18;3.17;;;;;;;;;;4974519;28;20090;-69
2023/07/26 04:14:37;;;;;;;5.85;2.08;;;;;;;;;;4974082;28;20039;-69
2023/07/26 04:17:02;;;;;;;9.68;2.03;;;;;;;;;;4974419;28;20039;-69
2023/07/26 04:19:27;;;;;;;8.57;2.60;;;;;;;;;;4975979;28;20066;-69
2023/07/26 04:21:53;;;;;;;14.32;2.88;;;;;;;;;;4978145;28;20045;-69
2023/07/26 04:24:18;;;;;;;8.32;2.80;;;;;;;;;;4975976;28;20099;-69
2023/07/26 04:26:43;;;;;;;8.25;2.40;;;;;;;;;;4978007;28;20039;-69
2023/07/26 04:29:09;;;;;;;11.40;2.50;;;;;;;;;;4977960;28;20054;-69
2023/07/26 04:31:34;;;;;;;13.15;2.65;;;;;;;;;;4977912;28;20042;-69
2023/07/26 04:33:59;;;;;;;12.10;2.80;;;;;;;;;;4977494;28;20118;-69
2023/07/26 04:36:24;;;;;;;7.53;2.20;;;;;;;;;;4978352;28;20122;-69
2023/07/26 04:38:50;;;;;;;10.70;2.72;;;;;;;;;;4977764;28;20049;-69
2023/07/26 04:41:15;;;;;;;12.00;2.30;;;;;;;;;;4977794;28;20391;-69
2023/07/26 04:43:40;;;;;;;8.95;2.80;;;;;;;;;;4977848;28;20411;-69
2023/07/26 04:46:06;;;;;;;10.77;2.97;;;;;;;;;;4977304;28;20038;-69
2023/07/26 04:48:31;;;;;;;12.43;2.53;;;;;;;;;;4977501;28;20049;-69
2023/07/26 04:50:57;;;;;;;9.98;2.50;;;;;;;;;;4977628;28;20526;-69
2023/07/26 04:53:22;;;;;;;6.65;2.00;;;;;;;;;;4976558;28;20042;-69
2023/07/26 04:55:51;;;;;;;13.05;2.45;;;;;;;;;;4976505;28;20135;-69
2023/07/26 04:58:17;;;;;;;7.55;2.63;;;;;;;;;;4977743;28;20034;-69
2023/07/26 05:00:42;;;;;;;9.30;2.53;;;;;;;;;;4976976;28;20057;-69
2023/07/26 05:03:09;;;;;;;8.73;2.38;;;;;;;;;;4977630;28;20046;-69
2023/07/26 05:05:35;;;;;;;7.70;2.70;;;;;;;;;;4976090;28;20030;-69
2023/07/26 05:08:01;;;;;;;8.07;2.30;;;;;;;;;;4977428;28;20043;-69
2023/07/26 05:10:26;;;;;;;8.32;2.47;;;;;;;;;;4977154;28;20123;-69
2023/07/26 05:12:52;;;;;;;12.07;2.95;;;;;;;;;;4977496;28;20097;-69
2023/07/26 05:15:18;;;;;;;12.43;3.00;;;;;;;;;;4975999;28;20038;-69
2023/07/26 05:17:44;;;;;;;9.45;2.30;;;;;;;;;;4976306;28;20042;-69
2023/07/26 05:20:10;;;;;;;7.53;1.98;;;;;;;;;;4975310;28;20478;-69
2023/07/26 05:22:35;;;;;;;7.15;2.05;;;;;;;;;;4977329;28;20089;-69
2023/07/26 05:25:01;;;;;;;4.72;2.15;;;;;;;;;;4977004;28;20442;-69
2023/07/26 05:27:26;;;;;;;6.53;2.13;;;;;;;;;;4977258;28;20049;-69
2023/07/26 05:29:53;;;;;;;4.75;1.90;;;;;;;;;;4976065;28;20181;-69
2023/07/26 05:32:19;;;;;;;4.68;2.00;;;;;;;;;;4976524;28;20054;-69
2023/07/26 05:34:44;;;;;;;70.82;5.13;;;;;;;;;;4976394;28;20406;-69
2023/07/26 05:37:09;;;;;;;41.85;3.65;;;;;;;;;;4976713;28;20049;-69
2023/07/26 05:39:34;;;;;;;167.82;11.07;;;;;;;;;;4976484;28;20030;-69
2023/07/26 05:42:00;;;;;;;275.77;13.35;;;;;;;;;;4976592;28;20050;-69
2023/07/26 05:44:25;;;;;;;145.57;7.60;;;;;;;;;;4976362;28;20046;-69
2023/07/26 05:46:50;;;;;;;174.35;9.30;;;;;;;;;;4976583;28;20035;-69
2023/07/26 05:49:16;;;;;;;152.65;7.82;;;;;;;;;;4976549;28;20046;-70
2023/07/26 05:51:41;;;;;;;54.90;3.70;;;;;;;;;;4976751;28;20764;-70
2023/07/26 05:54:06;;;;;;;13.70;2.50;;;;;;;;;;4976533;28;20043;-70
2023/07/26 05:56:32;;;;;;;5.65;2.13;;;;;;;;;;4976863;28;20042;-70
2023/07/26 05:58:57;;;;;;;3.97;1.98;;;;;;;;;;4976123;28;20031;-70
2023/07/26 06:01:22;;;;;;;3.20;2.00;;;;;;;;;;4976496;28;20054;-69
2023/07/26 06:03:48;;;;;;;8.00;2.05;;;;;;;;;;4976463;28;20031;-69
2023/07/26 06:06:13;;;;;;;4.13;1.85;;;;;;;;;;4976278;28;20610;-69
2023/07/26 06:08:38;;;;;;;4.50;2.40;;;;;;;;;;4976266;28;20069;-69
2023/07/26 06:11:04;;;;;;;4.72;1.90;;;;;;;;;;4976248;28;20039;-69
2023/07/26 06:13:29;;;;;;;5.53;2.50;;;;;;;;;;4974687;28;20046;-70
2023/07/26 06:15:55;;;;;;;6.75;2.15;;;;;;;;;;4975763;28;20042;-69
2023/07/26 06:18:21;;;;;;;5.18;1.95;;;;;;;;;;4976517;28;20058;-69
2023/07/26 06:20:46;;;;;;;3.30;1.92;;;;;;;;;;4975813;28;20089;-69
2023/07/26 06:23:11;;;;;;;5.43;1.90;;;;;;;;;;4975782;28;20053;-69
2023/07/26 06:25:37;;;;;;;4.63;2.22;;;;;;;;;;4975937;28;20031;-69
2023/07/26 06:28:02;;;;;;;3.20;1.88;;;;;;;;;;4976133;28;20070;-69
2023/07/26 06:30:27;;;;;;;6.15;2.25;;;;;;;;;;4975526;28;20121;-70
2023/07/26 06:32:53;;;;;;;3.78;2.00;;;;;;;;;;4976196;28;20030;-69
2023/07/26 06:35:18;;;;;;;5.03;2.17;;;;;;;;;;4975727;28;20066;-69
2023/07/26 06:37:43;;;;;;;3.85;1.80;;;;;;;;;;4975834;28;20094;-69
2023/07/26 06:40:09;;;;;;;6.75;1.90;;;;;;;;;;4975133;28;20481;-70
2023/07/26 06:42:35;;;;;;;6.28;2.17;;;;;;;;;;4975656;28;20039;-69
2023/07/26 06:45:01;;;;;;;5.53;2.35;;;;;;;;;;4975505;28;20041;-69
2023/07/26 06:47:26;;;;;;;4.82;2.58;;;;;;;;;;4976051;28;20039;-70
2023/07/26 06:49:52;;;;;;;6.90;2.45;;;;;;;;;;4975521;28;20039;-70
2023/07/26 06:52:17;;;;;;;5.80;2.25;;;;;;;;;;4975780;28;20082;-70
2023/07/26 06:54:42;;;;;;;5.15;2.45;;;;;;;;;;4975541;28;20038;-70
2023/07/26 06:57:09;;;;;;;5.03;1.95;;;;;;;;;;4975242;28;20066;-69
2023/07/26 06:59:35;;;;;;;4.45;2.00;;;;;;;;;;4975029;28;20039;-68
2023/07/26 07:02:00;;;;;;;3.83;2.17;;;;;;;;;;4974475;28;21137;-70
2023/07/26 07:04:26;;;;;;;4.80;2.38;;;;;;;;;;4974650;28;20045;-70
2023/07/26 07:06:51;;;;;;;4.53;2.35;;;;;;;;;;4974077;28;20081;-70
2023/07/26 07:09:17;;;;;;;5.75;2.50;;;;;;;;;;4974549;28;20045;-70
2023/07/26 07:11:42;;;;;;;6.38;2.55;;;;;;;;;;4973802;28;20164;-70
2023/07/26 07:14:07;;;;;;;4.57;2.30;;;;;;;;;;4974797;28;20129;-68
2023/07/26 07:16:33;;;;;;;4.00;2.50;;;;;;;;;;4963295;28;20479;-71
2023/07/26 07:18:58;;;;;;;3.92;2.58;;;;;;;;;;4974429;28;20054;-71
2023/07/26 07:21:24;;;;;;;5.53;2.80;;;;;;;;;;4974303;28;20414;-71
2023/07/26 07:23:50;;;;;;;4.32;2.63;;;;;;;;;;4974148;28;20043;-70
2023/07/26 07:26:16;;;;;;;5.95;3.13;;;;;;;;;;4973266;28;20039;-69
2023/07/26 07:28:41;;;;;;;4.68;2.80;;;;;;;;;;4974549;28;20043;-71
2023/07/26 07:31:07;;;;;;;4.30;2.65;;;;;;;;;;4972665;28;20062;-71
2023/07/26 07:33:32;;;;;;;5.20;3.00;;;;;;;;;;4973421;28;20125;-68
2023/07/26 07:35:57;;;;;;;3.63;2.50;;;;;;;;;;4974731;28;20078;-68
2023/07/26 07:38:23;;;;;;;4.28;2.25;;;;;;;;;;4974467;28;20039;-69
2023/07/26 07:40:49;;;;;;;4.63;2.70;;;;;;;;;;4974529;28;20053;-69
2023/07/26 07:43:14;;;;;;;4.18;2.55;;;;;;;;;;4974115;28;20093;-68
2023/07/26 07:45:42;;;;;;;5.25;2.88;;;;;;;;;;4974305;28;20446;-68
2023/07/26 07:48:08;;;;;;;5.03;2.80;;;;;;;;;;4974797;28;20049;-69
2023/07/26 07:50:34;;;;;;;3.70;2.38;;;;;;;;;;4972471;28;20319;-70
2023/07/26 07:53:00;;;;;;;3.97;2.72;;;;;;;;;;4972543;28;20030;-70
2023/07/26 07:55:25;;;;;;;6.10;2.80;;;;;;;;;;4974966;28;20039;-70
2023/07/26 07:57:51;;;;;;;4.28;2.70;;;;;;;;;;4972422;28;20113;-68
2023/07/26 08:00:16;;;;;;;4.10;2.58;;;;;;;;;;4974579;28;20126;-68
2023/07/26 08:02:42;;;;;;;5.20;2.95;;;;;;;;;;4974068;28;20043;-68
2023/07/26 08:05:09;;;;;;;3.97;2.60;;;;;;;;;;4971721;28;20035;-69
2023/07/26 08:07:34;;;;;;;4.80;2.53;;;;;;;;;;4975949;28;20043;-68
2023/07/26 08:09:59;;;;;;;5.63;3.05;;;;;;;;;;4974732;28;20097;-69
2023/07/26 08:12:25;;;;;;;8.38;2.85;;;;;;;;;;4974354;28;20049;-68
2023/07/26 08:14:50;;;;;;;5.80;2.70;;;;;;;;;;4973446;28;20113;-68
2023/07/26 08:17:16;;;;;;;5.78;2.90;;;;;;;;;;4973522;28;20538;-69
2023/07/26 08:19:41;;;;;;;3.67;2.63;;;;;;;;;;4974057;28;20223;-69
2023/07/26 08:22:07;;;;;;;5.18;2.97;;;;;;;;;;4969568;28;20106;-68
2023/07/26 08:24:32;;;;;;;4.22;2.70;;;;;;;;;;4969941;28;20038;-69
2023/07/26 08:26:58;;;;;;;5.05;2.60;;;;;;;;;;4969463;28;20046;-69
2023/07/26 08:29:23;;;;;;;4.97;2.80;;;;;;;;;;4968162;28;20030;-68
2023/07/26 08:31:49;;;;;;;6.25;2.70;;;;;;;;;;4971308;28;20517;-68
2023/07/26 08:34:14;;;;;;;6.45;3.28;;;;;;;;;;4971174;28;20031;-69
2023/07/26 08:36:39;;;;;;;8.18;3.75;;;;;;;;;;4971603;28;20038;-69
2023/07/26 08:39:05;;;;;;;5.65;3.35;;;;;;;;;;4971898;28;20043;-69
2023/07/26 08:41:31;;;;;;;5.70;3.10;;;;;;;;;;4974385;28;20089;-69
2023/07/26 08:43:59;;;;;;;5.90;3.42;;;;;;;;;;4972404;28;20037;-68
2023/07/26 08:46:24;;;;;;;7.28;3.60;;;;;;;;;;4966525;28;20128;-69
2023/07/26 08:48:50;;;;;;;5.40;3.45;;;;;;;;;;4972073;28;20063;-69
2023/07/26 08:51:16;;;;;;;6.88;3.10;;;;;;;;;;4972853;28;20464;-69
2023/07/26 08:53:43;;;;;;;5.30;2.90;;;;;;;;;;4971722;28;20121;-69
2023/07/26 08:56:08;;;;;;;6.10;3.28;;;;;;;;;;4971555;28;20105;-69
2023/07/26 08:58:34;;;;;;;4.68;3.20;;;;;;;;;;4972617;28;20039;-69
2023/07/26 09:00:59;;;;;;;6.43;3.55;;;;;;;;;;4972001;28;20051;-69
2023/07/26 09:03:25;;;;;;;5.68;3.42;;;;;;;;;;4973370;28;20046;-69
2023/07/26 09:06:04;;;;;;;7.00;3.60;;;;;;;;;;4975967;28;20098;-69
2023/07/26 09:08:29;;;;;;;4.80;3.08;;;;;;;;;;4967289;28;20038;-69
2023/07/26 09:10:54;;;;;;;6.70;3.45;;;;;;;;;;4976852;28;20442;-70
2023/07/26 09:13:20;;;;;;;6.25;3.15;;;;;;;;;;4976437;28;20026;-69
2023/07/26 09:15:45;;;;;;;4.95;2.80;;;;;;;;;;4976867;28;20035;-69
2023/07/26 09:18:12;;;;;;;9.60;3.38;;;;;;;;;;4954586;28;20030;-69
2023/07/26 09:20:37;;;;;;;6.25;3.30;;;;;;;;;;4967753;28;20114;-68
2023/07/26 09:23:03;;;;;;;7.70;3.58;;;;;;;;;;4972014;28;20549;-69
2023/07/26 09:25:47;;;;;;;4.97;3.35;;;;;;;;;;4972229;28;20419;-68
2023/07/26 09:28:14;;;;;;;6.78;3.60;;;;;;;;;;4969392;28;20126;-70
2023/07/26 09:30:41;;;;;;;7.13;3.33;;;;;;;;;;4972507;28;20039;-68
2023/07/26 09:33:08;;;;;;;6.72;3.88;;;;;;;;;;4973249;28;20125;-69
2023/07/26 09:35:44;;;;;;;8.68;3.72;;;;;;;;;;4971662;28;20094;-69
2023/07/26 09:38:17;;;;;;;9.65;4.13;;;;;;;;;;4970690;28;20101;-67
2023/07/26 09:40:44;;;;;;;8.30;3.42;;;;;;;;;;4964946;28;20458;-68
2023/07/26 09:43:10;;;;;;;5.95;3.30;;;;;;;;;;4972155;28;20058;-69
2023/07/26 09:45:36;;;;;;;7.35;3.60;;;;;;;;;;4972373;28;20034;-69
2023/07/26 09:48:09;;;;;;;10.38;3.25;;;;;;;;;;4971758;28;20589;-69
2023/07/26 09:50:35;;;;;;;6.63;3.60;;;;;;;;;;4971789;28;20034;-68
2023/07/26 09:53:05;;;;;;;6.10;3.60;;;;;;;;;;4972086;28;20038;-69
2023/07/26 09:55:31;;;;;;;6.30;3.22;;;;;;;;;;4970724;28;20022;-69
2023/07/26 09:57:57;;;;;;;6.20;3.20;;;;;;;;;;4973144;28;20035;-68
2023/07/26 10:00:26;;;;;;;5.30;3.30;;;;;;;;;;4972573;28;20059;-68
2023/07/26 10:02:57;;;;;;;7.57;3.67;;;;;;;;;;4972085;28;20195;-68
2023/07/26 10:05:25;;;;;;;5.47;2.83;;;;;;;;;;4971850;28;20047;-68
2023/07/26 10:07:51;;;;;;;6.90;3.15;;;;;;;;;;4968531;28;20031;-68
2023/07/26 10:10:19;;;;;;;9.68;3.10;;;;;;;;;;4972492;28;20031;-68
2023/07/26 10:12:46;;;;;;;6.40;3.08;;;;;;;;;;4970020;28;20105;-69
2023/07/26 10:15:16;;;;;;;7.43;2.80;;;;;;;;;;4969706;28;20089;-69
2023/07/26 10:17:43;;;;;;;5.07;2.88;;;;;;;;;;4969617;28;20039;-68
2023/07/26 10:20:09;;;;;;;4.85;2.35;;;;;;;;;;4971017;28;20043;-68
2023/07/26 10:22:35;;;;;;;5.93;2.67;;;;;;;;;;4969528;28;20090;-68
2023/07/26 10:25:01;;;;;;;6.80;3.17;;;;;;;;;;4970716;28;20093;-69
2023/07/26 10:27:27;;;;;;;5.32;2.55;;;;;;;;;;4967549;28;20415;-69
2023/07/26 10:29:52;;;;;;;5.82;3.22;;;;;;;;;;4962604;28;20042;-68
2023/07/26 10:32:17;;;;;;;6.80;3.10;;;;;;;;;;4970502;28;20035;-68
2023/07/26 10:34:43;;;;;;;6.65;2.88;;;;;;;;;;4970145;28;20047;-68
2023/07/26 10:37:19;;;;;;;5.05;2.95;;;;;;;;;;4969674;28;20471;-69
2023/07/26 10:39:44;;;;;;;5.72;2.78;;;;;;;;;;4969186;28;21033;-69
2023/07/26 10:42:22;;;;;;;4.80;2.78;;;;;;;;;;4969465;28;20026;-68
2023/07/26 10:44:48;;;;;;;5.35;2.60;;;;;;;;;;4969626;28;20945;-68
2023/07/26 10:47:14;;;;;;;4.28;2.53;;;;;;;;;;4967001;28;20038;-68
2023/07/26 10:49:44;;;;;;;4.60;2.17;;;;;;;;;;4969702;28;20517;-68
2023/07/26 10:52:10;;;;;;;5.35;2.33;;;;;;;;;;4970600;28;20089;-68
2023/07/26 10:54:36;;;;;;;6.13;2.50;;;;;;;;;;4970044;28;20027;-69
2023/07/26 10:57:26;;;;;;;8.43;2.40;;;;;;;;;;4969401;28;20126;-70
2023/07/26 11:00:18;;;;;;;6.38;2.20;;;;;;;;;;4970237;28;20070;-68
2023/07/26 11:02:48;;;;;;;7.15;2.42;;;;;;;;;;4969911;28;20026;-69
2023/07/26 11:05:21;;;;;;;5.85;2.90;;;;;;;;;;4969648;28;20094;-69
2023/07/26 11:08:00;;;;;;;6.80;2.70;;;;;;;;;;4970109;28;20114;-68
2023/07/26 11:10:29;;;;;;;5.32;3.10;;;;;;;;;;4970162;28;20150;-69
2023/07/26 11:13:33;;;;;;;7.30;2.55;;;;;;;;;;4969685;28;20045;-68
2023/07/26 11:16:01;;;;;;;4.78;2.45;;;;;;;;;;4938733;29;20039;-68
2023/07/26 11:18:27;;;;;;;5.63;2.50;;;;;;;;;;4932270;29;20042;-68
2023/07/26 11:20:54;;;;;;;6.00;2.80;;;;;;;;;;4948224;28;20062;-71
2023/07/26 11:23:21;;;;;;;6.47;2.58;;;;;;;;;;4969509;28;20047;-69
2023/07/26 11:25:50;;;;;;;6.57;2.70;;;;;;;;;;4968224;28;20038;-68
2023/07/26 11:28:16;;;;;;;5.22;2.60;;;;;;;;;;4968599;28;20043;-71
2023/07/26 11:30:51;;;;;;;6.18;3.00;;;;;;;;;;4968656;28;20064;-71
2023/07/26 11:33:30;;;;;;;6.38;2.50;;;;;;;;;;4969743;28;20066;-71
2023/07/26 11:35:55;;;;;;;4.50;2.50;;;;;;;;;;4970377;28;20166;-70
2023/07/26 11:38:20;;;;;;;5.47;2.70;;;;;;;;;;4971449;28;20055;-69
2023/07/26 11:40:46;;;;;;;5.78;2.35;;;;;;;;;;4966959;28;20034;-68
2023/07/26 11:43:12;;;;;;;4.95;2.55;;;;;;;;;;4968280;28;20542;-71
2023/07/26 11:45:39;;;;;;;5.40;2.40;;;;;;;;;;4968798;28;20043;-71
2023/07/26 11:48:10;;;;;;;6.13;2.72;;;;;;;;;;4966059;28;20042;-70
2023/07/26 11:50:37;;;;;;;6.13;2.80;;;;;;;;;;4967520;28;20050;-69
2023/07/26 11:53:07;;;;;;;4.40;2.33;;;;;;;;;;4957377;28;20039;-69
2023/07/26 11:55:38;;;;;;;4.95;2.40;;;;;;;;;;4968363;28;20081;-69
2023/07/26 11:58:07;;;;;;;8.18;2.88;;;;;;;;;;4968626;28;20039;-71
2023/07/26 12:00:34;;;;;;;5.40;2.53;;;;;;;;;;4968644;28;20577;-70
2023/07/26 12:03:01;;;;;;;5.95;2.65;;;;;;;;;;4967219;28;20084;-69
2023/07/26 12:05:28;;;;;;;7.28;3.10;;;;;;;;;;4969411;28;20070;-69
2023/07/26 12:07:56;;;;;;;5.80;2.63;;;;;;;;;;4968590;28;20530;-70
2023/07/26 12:10:29;;;;;;;7.35;2.42;;;;;;;;;;4968344;28;20030;-70
2023/07/26 12:12:56;;;;;;;4.82;2.35;;;;;;;;;;4983285;28;20070;-69
2023/07/26 12:15:22;;;;;;;4.80;2.45;;;;;;;;;;4959172;28;20043;-70
2023/07/26 12:18:02;;;;;;;4.57;2.35;;;;;;;;;;4968735;28;20046;-69
2023/07/26 12:20:29;;;;;;;4.30;1.88;;;;;;;;;;4969540;28;20372;-70
2023/07/26 12:22:56;;;;;;;5.90;2.58;;;;;;;;;;4968799;28;20034;-69
2023/07/26 12:25:33;;;;;;;5.25;1.77;;;;;;;;;;4969294;28;20050;-70
2023/07/26 12:27:58;;;;;;;5.20;2.17;;;;;;;;;;4968235;28;20092;-69
2023/07/26 12:30:25;;;;;;;5.38;1.95;;;;;;;;;;4968790;28;20023;-69
2023/07/26 12:33:10;;;;;;;3.88;2.00;;;;;;;;;;4967184;28;20058;-69
2023/07/26 12:35:36;;;;;;;5.55;1.98;;;;;;;;;;4968070;28;20118;-70
2023/07/26 12:38:09;;;;;;;4.90;2.15;;;;;;;;;;4967459;28;20125;-69
2023/07/26 12:40:34;;;;;;;5.15;2.00;;;;;;;;;;4970234;28;20114;-69
2023/07/26 12:42:59;;;;;;;5.55;1.92;;;;;;;;;;4956713;28;20079;-70
2023/07/26 12:45:25;;;;;;;6.93;2.28;;;;;;;;;;4972938;28;20042;-69
2023/07/26 12:47:50;;;;;;;7.70;2.53;;;;;;;;;;4971188;28;20047;-70
2023/07/26 12:50:15;;;;;;;4.82;2.15;;;;;;;;;;4972383;28;20050;-70
2023/07/26 12:52:41;;;;;;;5.50;2.25;;;;;;;;;;4972197;28;20041;-70
2023/07/26 12:55:07;;;;;;;10.05;2.30;;;;;;;;;;4972580;28;20134;-70
2023/07/26 12:57:33;;;;;;;4.72;1.90;;;;;;;;;;4972128;28;20472;-70
2023/07/26 12:59:58;;;;;;;3.90;2.00;;;;;;;;;;4971225;28;20046;-70
2023/07/26 13:02:24;;;;;;;6.68;2.33;;;;;;;;;;4968831;28;20041;-70
2023/07/26 13:04:49;;;;;;;7.22;2.40;;;;;;;;;;4972918;28;20037;-70
2023/07/26 13:07:14;;;;;;;5.95;2.17;;;;;;;;;;4972365;28;20633;-69
2023/07/26 13:09:39;;;;;;;5.55;2.45;;;;;;;;;;4971683;28;20428;-69
2023/07/26 13:12:05;;;;;;;6.05;1.98;;;;;;;;;;4971660;28;20026;-69
2023/07/26 13:14:31;;;;;;;4.68;1.88;;;;;;;;;;4972187;28;20039;-69
2023/07/26 13:16:56;;;;;;;6.47;1.88;;;;;;;;;;4971779;28;20043;-69
2023/07/26 13:19:21;;;;;;;3.72;1.95;;;;;;;;;;4971822;28;20206;-69
2023/07/26 13:21:47;;;;;;;3.25;1.40;;;;;;;;;;4972553;28;20076;-69
2023/07/26 13:24:12;;;;;;;4.00;1.67;;;;;;;;;;4971708;28;20042;-70
2023/07/26 13:26:37;;;;;;;4.60;1.45;;;;;;;;;;4972424;28;20035;-69
2023/07/26 13:29:03;;;;;;;5.78;1.67;;;;;;;;;;4972651;28;20157;-69
2023/07/26 13:31:28;;;;;;;3.33;1.35;;;;;;;;;;4972037;28;20066;-69
2023/07/26 13:33:53;;;;;;;4.45;1.80;;;;;;;;;;4972687;28;20049;-69
2023/07/26 13:36:22;;;;;;;5.85;2.08;;;;;;;;;;4971083;28;20074;-70
2023/07/26 13:38:47;;;;;;;5.50;1.80;;;;;;;;;;4972438;28;20042;-69
2023/07/26 13:41:13;;;;;;;4.90;1.60;;;;;;;;;;4971642;28;20043;-69
2023/07/26 13:43:38;;;;;;;5.65;1.90;;;;;;;;;;4972668;28;20481;-69
2023/07/26 13:46:03;;;;;;;6.70;1.70;;;;;;;;;;4972583;28;20468;-69
2023/07/26 13:48:29;;;;;;;7.63;1.73;;;;;;;;;;4972737;28;20453;-69
2023/07/26 13:50:54;;;;;;;4.07;1.65;;;;;;;;;;4971317;28;20501;-69
2023/07/26 13:53:19;;;;;;;6.38;2.38;;;;;;;;;;4971385;28;20541;-70
2023/07/26 13:55:45;;;;;;;6.72;2.22;;;;;;;;;;4972152;28;20514;-69
2023/07/26 13:58:10;;;;;;;11.68;2.53;;;;;;;;;;4972245;28;20027;-69
2023/07/26 14:00:35;;;;;;;5.40;1.92;;;;;;;;;;4971440;28;20093;-69
2023/07/26 14:03:01;;;;;;;9.90;2.58;;;;;;;;;;4968341;28;20050;-69
2023/07/26 14:05:26;;;;;;;4.40;2.00;;;;;;;;;;4963771;28;20034;-69
2023/07/26 14:07:54;;;;;;;3.50;2.10;;;;;;;;;;4971905;28;20128;-69
2023/07/26 14:10:20;;;;;;;7.45;2.25;;;;;;;;;;4970841;28;20471;-69
2023/07/26 14:12:45;;;;;;;6.20;2.05;;;;;;;;;;4971282;28;20118;-69
2023/07/26 14:15:11;;;;;;;7.03;2.60;;;;;;;;;;4971492;28;20043;-69
2023/07/26 14:17:36;;;;;;;4.95;2.00;;;;;;;;;;4972032;28;20031;-69
2023/07/26 14:20:01;;;;;;;5.40;2.17;;;;;;;;;;4971503;28;20085;-69
2023/07/26 14:22:27;;;;;;;5.95;2.28;;;;;;;;;;4971578;28;20043;-69
2023/07/26 14:24:52;;;;;;;7.13;2.30;;;;;;;;;;4971742;28;20467;-69
2023/07/26 14:27:17;;;;;;;4.75;2.22;;;;;;;;;;4971474;28;20077;-69
2023/07/26 14:29:43;;;;;;;7.18;2.53;;;;;;;;;;4972380;28;20046;-69
2023/07/26 14:32:08;;;;;;;4.55;1.92;;;;;;;;;;4970968;28;20050;-69
2023/07/26 14:34:33;;;;;;;7.78;2.25;;;;;;;;;;4971396;28;20043;-69
2023/07/26 14:36:59;;;;;;;8.00;2.22;;;;;;;;;;4971834;28;20061;-69